Time;durP1;ratioP1;P1;durP2;ratioP2;P2;SDS_P1;SDS_P2;PMS_P1;PMS_P2;Temp;Humidity;BMP_temperature;BMP_pressure;BME280_temperature;BME280_humidity;BME280_pressure;Samples;Min_cycle;Max_cycle;Signal;HPM_P1;HPM_P2
2022/01/30 00:00:35;;;;;;;8.95;3.40;;;;;;;;;;4993736;28;20613;-47
2022/01/30 00:03:00;;;;;;;5.93;3.03;;;;;;;;;;4993345;28;20062;-44
2022/01/30 00:05:27;;;;;;;9.65;3.45;;;;;;;;;;4993590;28;20030;-45
2022/01/30 00:07:53;;;;;;;8.27;3.65;;;;;;;;;;4993298;28;20030;-45
2022/01/30 00:10:19;;;;;;;11.00;4.05;;;;;;;;;;4993198;28;20026;-46
2022/01/30 00:12:50;;;;;;;11.57;4.50;;;;;;;;;;4993877;28;20026;-46
2022/01/30 00:15:17;;;;;;;8.05;3.25;;;;;;;;;;4993570;28;20022;-46
2022/01/30 00:17:53;;;;;;;8.25;4.38;;;;;;;;;;4993111;28;20023;-45
2022/01/30 00:20:22;;;;;;;7.00;2.95;;;;;;;;;;4993048;28;20030;-44
2022/01/30 00:23:01;;;;;;;11.80;4.13;;;;;;;;;;4993410;28;20038;-45
2022/01/30 00:25:42;;;;;;;5.50;3.40;;;;;;;;;;4993357;28;20601;-46
2022/01/30 00:28:11;;;;;;;9.18;3.88;;;;;;;;;;4993388;28;20027;-46
2022/01/30 00:30:36;;;;;;;10.32;3.95;;;;;;;;;;4992615;28;20093;-45
2022/01/30 00:33:03;;;;;;;9.80;3.28;;;;;;;;;;4993468;28;20026;-45
2022/01/30 00:35:29;;;;;;;12.43;4.07;;;;;;;;;;4993417;28;20023;-46
2022/01/30 00:37:55;;;;;;;11.13;4.47;;;;;;;;;;4993219;28;20533;-46
2022/01/30 00:40:20;;;;;;;9.43;3.63;;;;;;;;;;4993134;28;20109;-44
2022/01/30 00:42:46;;;;;;;8.57;4.05;;;;;;;;;;4992805;28;20031;-46
2022/01/30 00:45:11;;;;;;;9.73;3.35;;;;;;;;;;4992936;28;20026;-46
2022/01/30 00:47:37;;;;;;;5.90;3.35;;;;;;;;;;4993001;28;20029;-45
2022/01/30 00:50:03;;;;;;;11.15;3.92;;;;;;;;;;4990568;28;20027;-45
2022/01/30 00:52:28;;;;;;;10.10;3.72;;;;;;;;;;4993251;28;20027;-46
2022/01/30 00:54:54;;;;;;;8.88;3.72;;;;;;;;;;4992968;28;20030;-45
2022/01/30 00:57:19;;;;;;;7.70;4.07;;;;;;;;;;4993032;28;20049;-46
2022/01/30 00:59:45;;;;;;;8.65;4.05;;;;;;;;;;4992748;28;20497;-45
2022/01/30 01:02:10;;;;;;;13.90;4.22;;;;;;;;;;4993216;28;20059;-45
2022/01/30 01:04:36;;;;;;;10.52;3.60;;;;;;;;;;4992896;28;20026;-45
2022/01/30 01:07:01;;;;;;;9.77;4.40;;;;;;;;;;4993480;28;20029;-46
2022/01/30 01:09:30;;;;;;;14.07;4.10;;;;;;;;;;4996931;28;20037;-46
2022/01/30 01:25:29;;;;;;;9.65;3.75;;;;;;;;;;5016339;28;20385;-45
2022/01/30 01:27:54;;;;;;;7.80;3.90;;;;;;;;;;5016207;28;20025;-44
2022/01/30 01:30:19;;;;;;;15.50;4.20;;;;;;;;;;5016111;28;20050;-46
2022/01/30 01:32:45;;;;;;;9.63;3.28;;;;;;;;;;5016264;28;20022;-45
2022/01/30 01:35:10;;;;;;;6.35;3.58;;;;;;;;;;5016030;28;20034;-45
2022/01/30 01:37:36;;;;;;;10.88;3.25;;;;;;;;;;5016368;28;20038;-45
2022/01/30 01:40:02;;;;;;;11.57;4.75;;;;;;;;;;5016239;28;20029;-46
2022/01/30 01:42:32;;;;;;;11.35;3.75;;;;;;;;;;5015903;28;20470;-46
2022/01/30 01:44:59;;;;;;;8.53;3.40;;;;;;;;;;5016017;28;20077;-46
2022/01/30 01:47:29;;;;;;;9.60;3.40;;;;;;;;;;5015988;28;20269;-46
2022/01/30 01:49:54;;;;;;;9.60;3.88;;;;;;;;;;5016117;28;20105;-47
2022/01/30 01:52:23;;;;;;;7.88;3.65;;;;;;;;;;5015752;28;20109;-46
2022/01/30 01:54:57;;;;;;;6.63;3.15;;;;;;;;;;5015652;28;20105;-47
2022/01/30 01:57:24;;;;;;;11.43;3.47;;;;;;;;;;5016080;28;20036;-45
2022/01/30 01:59:49;;;;;;;6.45;3.13;;;;;;;;;;5015537;28;20076;-46
2022/01/30 02:02:15;;;;;;;7.55;3.35;;;;;;;;;;5015720;28;20026;-47
2022/01/30 02:04:42;;;;;;;5.18;2.20;;;;;;;;;;5015646;28;20575;-45
2022/01/30 02:09:38;;;;;;;4.78;2.63;;;;;;;;;;5015501;28;20373;-45
2022/01/30 02:12:04;;;;;;;8.75;2.70;;;;;;;;;;5014975;28;20117;-46
2022/01/30 02:14:46;;;;;;;9.38;3.65;;;;;;;;;;5015710;28;20100;-45
2022/01/30 02:25:43;;;;;;;10.65;3.33;;;;;;;;;;5015459;28;20036;-46
2022/01/30 02:28:12;;;;;;;5.18;3.03;;;;;;;;;;5015408;28;20030;-45
2022/01/30 02:30:43;;;;;;;19.85;3.88;;;;;;;;;;5015156;28;20041;-44
2022/01/30 02:33:09;;;;;;;4.53;2.47;;;;;;;;;;5015012;28;20145;-45
2022/01/30 02:35:34;;;;;;;5.47;2.85;;;;;;;;;;5014986;28;20042;-45
2022/01/30 02:38:01;;;;;;;8.07;3.13;;;;;;;;;;5015209;28;20022;-46
2022/01/30 02:40:29;;;;;;;10.95;3.35;;;;;;;;;;5015245;28;20436;-44
2022/01/30 02:42:55;;;;;;;8.15;3.70;;;;;;;;;;5015103;28;20037;-46
2022/01/30 02:45:23;;;;;;;10.27;3.55;;;;;;;;;;5014840;28;20022;-46
2022/01/30 02:48:34;;;;;;;6.32;3.22;;;;;;;;;;5014838;28;20083;-44
2022/01/30 02:53:07;;;;;;;4.80;2.25;;;;;;;;;;5014540;28;20124;-46
2022/01/30 02:55:33;;;;;;;10.13;3.13;;;;;;;;;;5014883;28;20080;-45
2022/01/30 02:57:59;;;;;;;5.22;2.90;;;;;;;;;;5014222;28;20038;-45
2022/01/30 03:00:24;;;;;;;10.25;3.55;;;;;;;;;;5014642;28;20032;-45
2022/01/30 03:02:49;;;;;;;6.80;2.90;;;;;;;;;;5013389;28;20087;-44
2022/01/30 03:05:15;;;;;;;8.65;3.40;;;;;;;;;;5014583;28;20026;-45
2022/01/30 03:07:40;;;;;;;10.77;3.20;;;;;;;;;;5014693;28;20477;-45
2022/01/30 03:10:07;;;;;;;12.80;3.78;;;;;;;;;;5014652;28;20493;-45
2022/01/30 03:12:32;;;;;;;5.53;3.53;;;;;;;;;;5014387;28;20072;-45
2022/01/30 03:14:58;;;;;;;13.65;3.78;;;;;;;;;;5014306;28;20105;-47
2022/01/30 03:17:23;;;;;;;6.97;3.70;;;;;;;;;;5014502;28;20026;-45
2022/01/30 03:19:49;;;;;;;9.80;3.22;;;;;;;;;;5014121;28;20077;-45
2022/01/30 03:22:14;;;;;;;11.00;3.72;;;;;;;;;;5014332;28;20038;-45
2022/01/30 03:24:40;;;;;;;7.60;3.85;;;;;;;;;;5014351;28;20060;-45
2022/01/30 03:27:08;;;;;;;6.43;3.40;;;;;;;;;;5012905;28;20362;-45
2022/01/30 03:29:34;;;;;;;5.13;2.90;;;;;;;;;;5012284;28;20533;-45
2022/01/30 03:32:00;;;;;;;7.22;3.53;;;;;;;;;;5013653;28;20045;-45
2022/01/30 03:34:25;;;;;;;7.22;3.47;;;;;;;;;;5013947;28;20108;-46
2022/01/30 03:36:51;;;;;;;8.85;3.25;;;;;;;;;;5014212;28;20029;-44
2022/01/30 03:39:17;;;;;;;11.57;3.65;;;;;;;;;;5014156;28;20519;-45
2022/01/30 03:41:43;;;;;;;6.07;3.42;;;;;;;;;;5013664;28;20025;-45
2022/01/30 03:44:08;;;;;;;4.45;3.03;;;;;;;;;;5013788;28;20101;-45
2022/01/30 03:46:33;;;;;;;9.35;3.17;;;;;;;;;;5014024;28;20030;-46
2022/01/30 03:48:59;;;;;;;9.70;3.50;;;;;;;;;;5013754;28;20061;-45
2022/01/30 03:51:24;;;;;;;12.35;3.90;;;;;;;;;;5013863;28;20026;-45
2022/01/30 03:53:50;;;;;;;5.93;3.42;;;;;;;;;;5013536;28;20056;-46
2022/01/30 03:56:15;;;;;;;11.88;4.10;;;;;;;;;;5013821;28;20082;-48
2022/01/30 03:58:41;;;;;;;7.13;3.50;;;;;;;;;;5013822;28;20543;-45
2022/01/30 04:01:06;;;;;;;7.80;3.70;;;;;;;;;;5013697;28;20038;-45
2022/01/30 04:03:32;;;;;;;7.75;3.38;;;;;;;;;;5013307;28;20466;-45
2022/01/30 04:05:57;;;;;;;8.52;3.50;;;;;;;;;;5013653;28;20021;-44
2022/01/30 04:08:23;;;;;;;3.30;2.58;;;;;;;;;;5013386;28;20048;-44
2022/01/30 04:10:49;;;;;;;8.10;3.28;;;;;;;;;;5013370;28;20115;-46
2022/01/30 04:13:14;;;;;;;5.85;3.15;;;;;;;;;;5013324;28;20052;-45
2022/01/30 04:15:40;;;;;;;7.65;3.20;;;;;;;;;;5013482;28;20026;-45
2022/01/30 04:18:06;;;;;;;6.20;3.13;;;;;;;;;;5013468;28;20025;-45
2022/01/30 04:20:32;;;;;;;6.20;3.60;;;;;;;;;;5013148;28;20033;-45
2022/01/30 04:22:57;;;;;;;8.07;3.03;;;;;;;;;;5013265;28;20603;-46
2022/01/30 04:25:23;;;;;;;7.85;3.20;;;;;;;;;;5012902;28;20392;-45
2022/01/30 04:27:49;;;;;;;3.17;2.35;;;;;;;;;;5013273;28;20026;-45
2022/01/30 04:30:15;;;;;;;5.85;3.30;;;;;;;;;;5011548;28;20460;-45
2022/01/30 04:32:43;;;;;;;7.35;3.47;;;;;;;;;;5013081;28;20034;-46
2022/01/30 04:35:14;;;;;;;8.25;3.40;;;;;;;;;;5013272;28;20021;-45
2022/01/30 05:09:38;;;;;;;7.43;3.15;;;;;;;;;;5011232;28;20041;-45
2022/01/30 05:12:04;;;;;;;8.65;3.28;;;;;;;;;;5012718;28;20049;-44
2022/01/30 05:14:36;;;;;;;8.10;4.07;;;;;;;;;;5012676;28;20462;-47
2022/01/30 05:17:03;;;;;;;9.85;3.13;;;;;;;;;;5012718;28;20057;-45
2022/01/30 05:19:30;;;;;;;12.68;3.67;;;;;;;;;;5012778;28;20033;-45
2022/01/30 05:21:56;;;;;;;5.85;3.20;;;;;;;;;;5012624;28;20065;-45
2022/01/30 05:24:22;;;;;;;6.55;3.47;;;;;;;;;;5012798;28;20053;-45
2022/01/30 05:26:48;;;;;;;6.60;3.63;;;;;;;;;;5012516;28;20060;-46
2022/01/30 05:29:15;;;;;;;8.30;3.50;;;;;;;;;;5012427;28;20462;-45
2022/01/30 05:31:42;;;;;;;8.98;3.83;;;;;;;;;;5012189;28;20048;-45
2022/01/30 05:34:08;;;;;;;5.82;3.47;;;;;;;;;;5011158;28;20030;-46
2022/01/30 05:36:38;;;;;;;5.22;3.30;;;;;;;;;;5012366;28;20030;-45
2022/01/30 05:39:04;;;;;;;8.95;3.70;;;;;;;;;;5012585;28;20037;-45
2022/01/30 05:41:32;;;;;;;8.02;3.40;;;;;;;;;;5012472;28;20053;-46
2022/01/30 05:44:00;;;;;;;9.82;3.58;;;;;;;;;;5012247;28;20025;-46
2022/01/30 05:46:41;;;;;;;9.63;3.60;;;;;;;;;;5012211;28;20513;-47
2022/01/30 05:49:07;;;;;;;6.95;2.67;;;;;;;;;;5012277;28;20065;-45
2022/01/30 05:51:32;;;;;;;7.45;3.63;;;;;;;;;;5012351;28;20104;-46
2022/01/30 05:53:58;;;;;;;7.93;3.35;;;;;;;;;;5013939;28;20029;-45
2022/01/30 05:56:23;;;;;;;7.32;3.65;;;;;;;;;;5015689;28;20033;-46
2022/01/30 05:58:49;;;;;;;7.25;3.60;;;;;;;;;;5015999;28;20030;-46
2022/01/30 06:01:15;;;;;;;8.23;3.80;;;;;;;;;;5015945;28;20549;-45
2022/01/30 06:03:40;;;;;;;7.00;3.70;;;;;;;;;;5015621;28;20029;-45
2022/01/30 06:06:07;;;;;;;5.28;2.80;;;;;;;;;;5015501;28;20033;-45
2022/01/30 06:08:43;;;;;;;6.35;3.72;;;;;;;;;;5015560;28;20030;-46
2022/01/30 06:11:11;;;;;;;9.13;3.45;;;;;;;;;;5015901;28;20048;-46
2022/01/30 06:13:37;;;;;;;6.35;3.22;;;;;;;;;;5014510;28;20417;-45
2022/01/30 06:16:03;;;;;;;8.48;3.55;;;;;;;;;;5015477;28;20030;-46
2022/01/30 06:18:29;;;;;;;7.50;4.15;;;;;;;;;;5015302;28;20025;-46
2022/01/30 06:20:54;;;;;;;7.95;3.67;;;;;;;;;;5015612;28;20021;-45
2022/01/30 06:23:26;;;;;;;7.60;3.60;;;;;;;;;;5015494;28;20041;-45
2022/01/30 06:25:55;;;;;;;7.80;4.03;;;;;;;;;;5015324;28;20064;-45
2022/01/30 06:28:20;;;;;;;8.10;3.80;;;;;;;;;;5015201;28;20022;-45
2022/01/30 06:30:46;;;;;;;9.43;3.80;;;;;;;;;;5015133;28;20050;-46
2022/01/30 06:33:11;;;;;;;6.93;3.78;;;;;;;;;;5015173;28;20034;-45
2022/01/30 06:35:37;;;;;;;9.00;3.95;;;;;;;;;;5015056;28;20030;-45
2022/01/30 06:38:03;;;;;;;11.32;3.90;;;;;;;;;;5013831;28;20044;-46
2022/01/30 06:40:28;;;;;;;6.97;4.05;;;;;;;;;;5015216;28;20032;-45
2022/01/30 06:42:54;;;;;;;5.60;3.95;;;;;;;;;;5015153;28;20026;-45
2022/01/30 06:45:20;;;;;;;7.55;3.60;;;;;;;;;;5015219;28;20489;-47
2022/01/30 06:47:45;;;;;;;5.47;3.42;;;;;;;;;;5015094;28;20030;-46
2022/01/30 06:50:11;;;;;;;8.38;3.55;;;;;;;;;;5014814;28;20029;-46
2022/01/30 06:52:37;;;;;;;10.60;4.40;;;;;;;;;;5015004;28;20022;-45
2022/01/30 06:55:03;;;;;;;6.75;4.00;;;;;;;;;;5014993;28;20029;-45
2022/01/30 06:57:29;;;;;;;8.15;3.90;;;;;;;;;;5014638;28;20030;-45
2022/01/30 06:59:55;;;;;;;8.38;4.13;;;;;;;;;;5014610;28;20033;-45
2022/01/30 07:02:20;;;;;;;7.50;3.80;;;;;;;;;;5014543;28;20026;-45
2022/01/30 07:04:46;;;;;;;11.85;3.80;;;;;;;;;;5013833;28;20113;-46
2022/01/30 07:07:11;;;;;;;7.40;3.67;;;;;;;;;;5014812;28;20061;-46
2022/01/30 07:09:37;;;;;;;5.57;4.00;;;;;;;;;;5014462;28;20022;-45
2022/01/30 07:12:03;;;;;;;7.07;4.00;;;;;;;;;;5014373;28;20018;-45
2022/01/30 07:14:29;;;;;;;5.68;3.60;;;;;;;;;;5014258;28;20544;-46
2022/01/30 07:16:55;;;;;;;9.15;4.20;;;;;;;;;;5014674;28;20030;-46
2022/01/30 07:19:21;;;;;;;7.38;4.07;;;;;;;;;;5014493;28;20444;-47
2022/01/30 07:21:46;;;;;;;6.43;3.90;;;;;;;;;;5014344;28;20022;-46
2022/01/30 07:24:12;;;;;;;7.28;3.90;;;;;;;;;;5014339;28;20385;-45
2022/01/30 07:26:37;;;;;;;6.57;4.00;;;;;;;;;;5013981;28;20516;-46
2022/01/30 07:29:04;;;;;;;7.15;4.43;;;;;;;;;;5014286;28;20080;-45
2022/01/30 07:31:31;;;;;;;7.25;4.07;;;;;;;;;;5013887;28;20390;-45
2022/01/30 07:33:56;;;;;;;8.10;4.40;;;;;;;;;;5014235;28;20117;-44
2022/01/30 07:36:22;;;;;;;7.45;4.32;;;;;;;;;;5013817;28;20113;-45
2022/01/30 07:38:48;;;;;;;11.80;4.75;;;;;;;;;;5014193;28;20037;-45
2022/01/30 07:41:13;;;;;;;9.02;4.72;;;;;;;;;;5014007;28;20025;-45
2022/01/30 07:43:39;;;;;;;10.48;5.10;;;;;;;;;;5014085;28;20378;-47
2022/01/30 07:46:05;;;;;;;8.45;4.32;;;;;;;;;;5013980;28;20078;-45
2022/01/30 07:48:32;;;;;;;8.35;4.60;;;;;;;;;;5013668;28;20022;-45
2022/01/30 07:50:57;;;;;;;7.57;4.72;;;;;;;;;;5013700;28;20026;-45
2022/01/30 07:53:23;;;;;;;10.77;5.38;;;;;;;;;;5013629;28;20381;-45
2022/01/30 07:55:48;;;;;;;11.48;5.20;;;;;;;;;;5013548;28;20037;-46
2022/01/30 07:58:15;;;;;;;11.07;4.80;;;;;;;;;;5013448;28;20022;-45
2022/01/30 08:00:40;;;;;;;10.20;4.55;;;;;;;;;;5013498;28;20453;-45
2022/01/30 08:03:06;;;;;;;7.32;3.75;;;;;;;;;;5013703;28;20073;-45
2022/01/30 08:05:31;;;;;;;11.55;4.22;;;;;;;;;;5013434;28;20490;-46
2022/01/30 08:07:57;;;;;;;12.48;4.72;;;;;;;;;;5013376;28;20044;-47
2022/01/30 08:10:23;;;;;;;9.43;4.15;;;;;;;;;;5013280;28;20026;-45
2022/01/30 08:12:48;;;;;;;6.53;4.13;;;;;;;;;;5013350;28;20018;-45
2022/01/30 08:15:14;;;;;;;8.32;4.47;;;;;;;;;;5013231;28;20025;-46
2022/01/30 08:17:39;;;;;;;7.03;3.72;;;;;;;;;;5013055;28;20022;-45
2022/01/30 08:20:08;;;;;;;4.70;3.40;;;;;;;;;;5013408;28;20080;-45
2022/01/30 08:22:47;;;;;;;5.13;3.00;;;;;;;;;;5013107;28;20485;-47
2022/01/30 08:25:14;;;;;;;6.53;2.88;;;;;;;;;;5013221;28;20489;-46
2022/01/30 08:27:39;;;;;;;3.80;2.40;;;;;;;;;;5013105;28;20026;-45
2022/01/30 08:30:06;;;;;;;4.53;2.50;;;;;;;;;;5013146;28;20118;-45
2022/01/30 08:32:31;;;;;;;4.25;2.53;;;;;;;;;;5012933;28;20049;-47
2022/01/30 08:34:57;;;;;;;5.50;2.58;;;;;;;;;;5013061;28;20080;-46
2022/01/30 08:37:22;;;;;;;3.95;2.75;;;;;;;;;;5013275;28;20018;-46
2022/01/30 08:39:48;;;;;;;10.15;3.28;;;;;;;;;;5012865;28;20378;-45
2022/01/30 08:42:13;;;;;;;4.35;2.88;;;;;;;;;;5013007;28;20038;-46
2022/01/30 08:44:39;;;;;;;3.85;2.80;;;;;;;;;;5013144;28;20412;-45
2022/01/30 08:47:05;;;;;;;6.15;3.15;;;;;;;;;;5012790;28;20490;-44
2022/01/30 08:49:30;;;;;;;6.10;3.63;;;;;;;;;;5012776;28;20075;-46
2022/01/30 08:51:56;;;;;;;9.20;3.80;;;;;;;;;;5012656;28;20116;-45
2022/01/30 08:54:21;;;;;;;7.30;3.83;;;;;;;;;;5012636;28;20057;-46
2022/01/30 08:56:47;;;;;;;5.90;3.65;;;;;;;;;;5013014;28;20029;-46
2022/01/30 08:59:12;;;;;;;6.05;3.50;;;;;;;;;;5012718;28;20470;-46
2022/01/30 09:01:38;;;;;;;8.05;4.00;;;;;;;;;;5012929;28;20123;-50
2022/01/30 09:04:03;;;;;;;8.48;3.40;;;;;;;;;;5013015;28;20108;-48
2022/01/30 09:06:31;;;;;;;5.53;3.15;;;;;;;;;;5012604;28;20026;-48
2022/01/30 09:08:56;;;;;;;5.47;3.15;;;;;;;;;;5012986;28;20380;-47
2022/01/30 09:11:22;;;;;;;5.60;3.53;;;;;;;;;;5012969;28;20109;-45
2022/01/30 09:13:47;;;;;;;4.43;3.03;;;;;;;;;;5012813;28;20018;-44
2022/01/30 09:16:12;;;;;;;15.15;3.28;;;;;;;;;;5012771;28;20486;-49
2022/01/30 09:18:38;;;;;;;7.13;3.25;;;;;;;;;;5012684;28;20033;-48
2022/01/30 09:21:04;;;;;;;5.07;2.90;;;;;;;;;;5012753;28;20026;-44
2022/01/30 09:23:30;;;;;;;4.20;2.60;;;;;;;;;;5012300;28;20030;-48
2022/01/30 09:25:56;;;;;;;6.15;2.80;;;;;;;;;;5012132;28;20026;-43
2022/01/30 09:28:21;;;;;;;5.93;2.72;;;;;;;;;;5013290;28;20045;-45
2022/01/30 09:30:47;;;;;;;6.32;3.47;;;;;;;;;;5016233;28;20053;-43
2022/01/30 09:33:12;;;;;;;5.20;3.20;;;;;;;;;;5014694;28;20553;-49
2022/01/30 09:35:38;;;;;;;15.88;3.10;;;;;;;;;;5016230;28;20033;-47
2022/01/30 09:38:03;;;;;;;5.15;3.33;;;;;;;;;;5015930;28;20030;-47
2022/01/30 09:40:29;;;;;;;7.05;3.17;;;;;;;;;;5016324;28;20034;-44
2022/01/30 09:42:56;;;;;;;7.65;3.17;;;;;;;;;;5016082;28;20049;-43
2022/01/30 09:45:22;;;;;;;7.13;2.42;;;;;;;;;;5015899;28;20116;-44
2022/01/30 09:47:49;;;;;;;9.48;2.30;;;;;;;;;;5016238;28;20069;-44
2022/01/30 09:50:17;;;;;;;14.05;2.50;;;;;;;;;;5015873;28;20462;-44
2022/01/30 09:52:43;;;;;;;7.00;2.63;;;;;;;;;;5015896;28;20038;-43
2022/01/30 09:55:10;;;;;;;5.05;1.83;;;;;;;;;;5015927;28;20505;-45
2022/01/30 09:57:36;;;;;;;11.23;2.40;;;;;;;;;;5015778;28;20022;-45
2022/01/30 10:00:05;;;;;;;3.88;1.90;;;;;;;;;;5015642;28;20033;-46
2022/01/30 10:02:30;;;;;;;5.03;1.85;;;;;;;;;;5015482;28;20061;-45
2022/01/30 10:04:55;;;;;;;5.47;1.90;;;;;;;;;;5015904;28;20030;-45
2022/01/30 10:07:25;;;;;;;8.32;1.80;;;;;;;;;;5014752;28;20026;-47
2022/01/30 10:09:51;;;;;;;;;;;;;;;;;;5016050;28;20033;-45
2022/01/30 10:12:19;;;;;;;4.35;1.60;;;;;;;;;;5015427;28;19913;-45
2022/01/30 10:14:51;;;;;;;13.93;2.75;;;;;;;;;;5015772;28;20018;-45
2022/01/30 10:17:26;;;;;;;9.80;2.13;;;;;;;;;;5015420;28;20026;-45
2022/01/30 10:20:03;;;;;;;14.38;1.77;;;;;;;;;;5015976;28;20033;-46
2022/01/30 10:22:28;;;;;;;7.35;1.58;;;;;;;;;;5015230;28;20167;-45
2022/01/30 10:24:54;;;;;;;18.23;1.73;;;;;;;;;;5015633;28;20101;-46
2022/01/30 10:27:22;;;;;;;12.77;1.65;;;;;;;;;;5015485;28;20377;-44
2022/01/30 10:29:57;;;;;;;10.95;1.67;;;;;;;;;;5015145;28;20025;-46
2022/01/30 10:32:22;;;;;;;17.77;1.77;;;;;;;;;;5015477;28;20041;-44
2022/01/30 10:35:05;;;;;;;43.22;2.50;;;;;;;;;;5015293;28;20378;-46
2022/01/30 10:37:31;;;;;;;25.20;2.35;;;;;;;;;;5015121;28;20045;-44
2022/01/30 10:40:15;;;;;;;20.77;1.98;;;;;;;;;;5015226;28;20458;-45
2022/01/30 10:42:46;;;;;;;22.17;2.45;;;;;;;;;;5015000;28;20116;-46
2022/01/30 10:45:16;;;;;;;28.33;2.55;;;;;;;;;;5014913;28;20486;-45
2022/01/30 10:47:43;;;;;;;27.90;2.47;;;;;;;;;;5015146;28;20402;-46
2022/01/30 10:50:17;;;;;;;24.00;2.45;;;;;;;;;;5014803;28;20478;-48
2022/01/30 10:52:49;;;;;;;17.67;2.28;;;;;;;;;;5014994;28;20096;-44
2022/01/30 10:55:15;;;;;;;25.45;2.53;;;;;;;;;;5014151;28;20315;-43
2022/01/30 10:57:44;;;;;;;30.85;2.50;;;;;;;;;;5014144;28;20266;-43
2022/01/30 11:00:09;;;;;;;13.43;1.58;;;;;;;;;;5014266;28;20022;-43
2022/01/30 11:02:41;;;;;;;26.35;3.15;;;;;;;;;;5013974;28;20503;-43
2022/01/30 11:05:11;;;;;;;11.00;1.42;;;;;;;;;;5014416;28;20484;-43
2022/01/30 11:07:37;;;;;;;37.05;2.67;;;;;;;;;;5014152;28;20018;-45
2022/01/30 11:10:23;;;;;;;42.63;2.38;;;;;;;;;;5014744;28;20026;-43
2022/01/30 11:13:07;;;;;;;42.42;2.42;;;;;;;;;;5014268;28;20049;-43
2022/01/30 11:15:42;;;;;;;67.80;4.25;;;;;;;;;;5014205;28;20512;-45
2022/01/30 11:18:08;;;;;;;59.00;3.42;;;;;;;;;;5014291;28;20057;-45
2022/01/30 11:20:35;;;;;;;60.42;3.50;;;;;;;;;;5014544;28;20069;-45
2022/01/30 11:23:02;;;;;;;61.20;3.10;;;;;;;;;;5014079;28;20478;-45
2022/01/30 11:25:33;;;;;;;60.80;3.20;;;;;;;;;;5014197;28;20057;-44
2022/01/30 11:28:04;;;;;;;29.13;2.58;;;;;;;;;;5014202;28;20025;-46
2022/01/30 11:30:32;;;;;;;151.32;9.38;;;;;;;;;;5013976;28;20116;-45
2022/01/30 11:32:58;;;;;;;117.88;6.45;;;;;;;;;;5014323;28;20500;-44
2022/01/30 11:35:24;;;;;;;80.20;6.85;;;;;;;;;;5014277;28;20032;-45
2022/01/30 11:37:50;;;;;;;78.72;3.47;;;;;;;;;;5014218;28;20400;-46
2022/01/30 11:40:18;;;;;;;57.50;3.97;;;;;;;;;;5013889;28;20030;-46
2022/01/30 11:42:49;;;;;;;32.40;2.67;;;;;;;;;;5013722;28;20540;-45
2022/01/30 11:45:27;;;;;;;41.45;2.25;;;;;;;;;;5013897;28;20026;-46
2022/01/30 11:48:16;;;;;;;42.38;2.20;;;;;;;;;;5014114;28;20025;-45
2022/01/30 11:50:42;;;;;;;23.45;2.00;;;;;;;;;;5010279;28;20045;-45
2022/01/30 11:53:14;;;;;;;21.52;3.28;;;;;;;;;;5014100;28;20049;-44
2022/01/30 11:55:55;;;;;;;24.10;3.35;;;;;;;;;;5013988;28;20030;-47
2022/01/30 11:58:30;;;;;;;17.25;2.20;;;;;;;;;;5013934;28;20402;-44
2022/01/30 12:00:56;;;;;;;29.73;3.45;;;;;;;;;;5013542;28;20052;-48
2022/01/30 12:03:23;;;;;;;44.42;3.97;;;;;;;;;;5013714;28;20065;-46
2022/01/30 12:05:49;;;;;;;75.18;5.78;;;;;;;;;;5013798;28;20429;-45
2022/01/30 12:08:42;;;;;;;55.85;4.97;;;;;;;;;;5013481;28;20026;-44
2022/01/30 12:11:36;;;;;;;61.35;3.60;;;;;;;;;;5013426;28;20113;-45
2022/01/30 12:14:21;;;;;;;50.38;5.93;;;;;;;;;;5013530;28;20116;-45
2022/01/30 12:17:00;;;;;;;44.33;3.17;;;;;;;;;;5013014;28;20077;-45
2022/01/30 12:19:37;;;;;;;35.22;3.35;;;;;;;;;;5013249;28;20481;-45
2022/01/30 12:22:20;;;;;;;36.00;3.33;;;;;;;;;;5013012;28;20421;-44
2022/01/30 12:24:49;;;;;;;45.03;3.13;;;;;;;;;;5013126;28;20021;-44
2022/01/30 12:27:15;;;;;;;32.28;4.03;;;;;;;;;;5012131;28;20030;-45
2022/01/30 12:29:43;;;;;;;31.80;3.10;;;;;;;;;;5011587;28;20168;-47
2022/01/30 12:32:24;;;;;;;53.67;4.20;;;;;;;;;;5010869;28;20100;-45
2022/01/30 12:34:55;;;;;;;55.00;3.90;;;;;;;;;;5011323;28;20041;-45
2022/01/30 12:37:21;;;;;;;40.42;3.17;;;;;;;;;;5012281;28;20026;-45
2022/01/30 12:39:48;;;;;;;31.83;4.05;;;;;;;;;;5012502;28;20022;-46
2022/01/30 12:42:16;;;;;;;41.25;3.35;;;;;;;;;;5011544;28;20389;-44
2022/01/30 12:44:43;;;;;;;43.90;3.95;;;;;;;;;;5012810;28;20036;-45
2022/01/30 12:47:08;;;;;;;45.83;5.47;;;;;;;;;;5013005;28;20507;-47
2022/01/30 12:49:42;;;;;;;34.67;3.97;;;;;;;;;;5012685;28;20030;-45
2022/01/30 12:52:16;;;;;;;47.70;3.67;;;;;;;;;;5012731;28;20026;-45
2022/01/30 12:54:43;;;;;;;44.42;3.92;;;;;;;;;;5012602;28;20053;-44
2022/01/30 12:57:11;;;;;;;60.95;3.95;;;;;;;;;;5012573;28;20026;-46
2022/01/30 12:59:37;;;;;;;39.85;2.78;;;;;;;;;;5012544;28;20053;-44
2022/01/30 13:02:07;;;;;;;53.20;3.50;;;;;;;;;;5014287;28;20080;-45
2022/01/30 13:04:35;;;;;;;44.28;3.78;;;;;;;;;;5014843;28;20067;-45
2022/01/30 13:07:01;;;;;;;55.17;5.53;;;;;;;;;;5016542;28;20033;-44
2022/01/30 13:09:28;;;;;;;75.03;5.43;;;;;;;;;;5016632;28;20030;-45
2022/01/30 13:12:12;;;;;;;69.13;5.22;;;;;;;;;;5015306;28;20084;-43
2022/01/30 13:14:38;;;;;;;67.38;6.88;;;;;;;;;;5016565;28;20516;-45
2022/01/30 13:17:05;;;;;;;79.88;5.90;;;;;;;;;;5015439;28;20091;-43
2022/01/30 13:19:35;;;;;;;60.35;4.40;;;;;;;;;;5014311;28;21072;-45
2022/01/30 13:22:04;;;;;;;65.97;4.55;;;;;;;;;;5013013;28;20037;-44
2022/01/30 13:24:29;;;;;;;59.65;4.00;;;;;;;;;;5015009;28;20033;-43
2022/01/30 13:27:15;;;;;;;48.25;4.15;;;;;;;;;;5014612;28;20030;-42
2022/01/30 13:29:40;;;;;;;43.33;3.15;;;;;;;;;;5014382;28;20042;-42
2022/01/30 13:32:08;;;;;;;60.97;3.42;;;;;;;;;;5014315;28;20050;-43
2022/01/30 13:34:34;;;;;;;71.35;4.57;;;;;;;;;;5014590;28;20110;-42
2022/01/30 13:37:05;;;;;;;58.65;4.93;;;;;;;;;;5014810;28;20034;-44
2022/01/30 13:39:37;;;;;;;50.30;3.55;;;;;;;;;;5014540;28;20052;-45
2022/01/30 13:42:29;;;;;;;50.17;3.45;;;;;;;;;;5014384;28;20030;-46
2022/01/30 13:47:57;;;;;;;51.78;3.50;;;;;;;;;;5012440;28;20041;-44
2022/01/30 13:50:39;;;;;;;67.68;3.85;;;;;;;;;;5014754;28;20066;-44
2022/01/30 13:53:08;;;;;;;85.57;4.72;;;;;;;;;;5014545;28;20026;-44
2022/01/30 13:55:37;;;;;;;62.70;4.57;;;;;;;;;;5014227;28;20108;-43
2022/01/30 13:58:04;;;;;;;50.70;3.25;;;;;;;;;;5014204;28;20026;-43
2022/01/30 14:00:36;;;;;;;38.55;2.88;;;;;;;;;;5014298;28;20600;-43
2022/01/30 14:03:04;;;;;;;37.35;2.75;;;;;;;;;;5013319;28;20044;-45
2022/01/30 14:05:31;;;;;;;51.58;3.20;;;;;;;;;;5014056;28;20025;-45
2022/01/30 14:07:58;;;;;;;44.03;4.60;;;;;;;;;;5014293;28;20030;-43
2022/01/30 14:10:32;;;;;;;33.17;3.60;;;;;;;;;;5014034;28;20061;-43
2022/01/30 14:13:06;;;;;;;39.78;3.60;;;;;;;;;;5014164;28;20030;-44
2022/01/30 14:15:34;;;;;;;50.17;4.50;;;;;;;;;;5013654;28;20037;-44
2022/01/30 14:18:07;;;;;;;48.45;3.70;;;;;;;;;;5011775;28;20030;-43
2022/01/30 14:20:33;;;;;;;38.70;3.75;;;;;;;;;;5013806;28;20100;-42
2022/01/30 14:23:07;;;;;;;47.08;3.08;;;;;;;;;;5014026;28;20169;-44
2022/01/30 14:25:32;;;;;;;39.33;2.72;;;;;;;;;;5013391;28;20485;-43
2022/01/30 14:27:58;;;;;;;25.67;2.65;;;;;;;;;;5013874;28;20037;-44
2022/01/30 14:30:38;;;;;;;30.33;3.67;;;;;;;;;;5013483;28;20482;-42
2022/01/30 14:33:04;;;;;;;30.50;2.63;;;;;;;;;;5013301;28;20036;-43
2022/01/30 14:35:36;;;;;;;49.22;4.20;;;;;;;;;;5013740;28;20041;-43
2022/01/30 14:38:05;;;;;;;31.20;2.85;;;;;;;;;;5013523;28;20034;-43
2022/01/30 14:40:37;;;;;;;26.08;2.55;;;;;;;;;;5012996;28;20112;-42
2022/01/30 14:43:10;;;;;;;28.75;2.70;;;;;;;;;;5013364;28;20096;-43
2022/01/30 14:45:38;;;;;;;32.65;5.35;;;;;;;;;;5013152;28;20088;-43
2022/01/30 14:48:05;;;;;;;26.02;2.42;;;;;;;;;;5012999;28;20397;-44
2022/01/30 14:50:31;;;;;;;31.35;2.65;;;;;;;;;;5012888;28;20037;-44
2022/01/30 14:52:58;;;;;;;17.55;2.45;;;;;;;;;;5013527;28;20026;-43
2022/01/30 14:55:24;;;;;;;21.60;2.53;;;;;;;;;;5012478;28;20084;-43
2022/01/30 14:57:51;;;;;;;24.92;2.65;;;;;;;;;;5013118;28;20045;-43
2022/01/30 15:00:18;;;;;;;20.30;2.10;;;;;;;;;;5013204;28;20029;-45
2022/01/30 15:02:47;;;;;;;26.50;3.78;;;;;;;;;;5011997;28;20117;-45
2022/01/30 15:05:14;;;;;;;21.75;3.42;;;;;;;;;;5012928;28;20032;-45
2022/01/30 15:07:44;;;;;;;16.20;2.60;;;;;;;;;;5012775;28;20029;-45
2022/01/30 15:10:10;;;;;;;28.98;2.75;;;;;;;;;;5012898;28;20120;-43
2022/01/30 15:12:37;;;;;;;24.90;2.33;;;;;;;;;;5012642;28;20026;-44
2022/01/30 15:15:06;;;;;;;51.65;3.67;;;;;;;;;;5012272;28;20393;-44
2022/01/30 15:17:35;;;;;;;49.47;4.88;;;;;;;;;;5011534;28;20061;-43
2022/01/30 15:20:01;;;;;;;31.55;2.60;;;;;;;;;;5012855;28;20032;-43
2022/01/30 15:22:28;;;;;;;32.65;3.78;;;;;;;;;;5012732;28;20053;-43
2022/01/30 15:24:54;;;;;;;33.67;2.72;;;;;;;;;;5011862;28;20486;-42
2022/01/30 15:27:22;;;;;;;32.92;2.88;;;;;;;;;;5011872;28;20032;-43
2022/01/30 15:29:49;;;;;;;24.73;2.58;;;;;;;;;;5012342;28;20030;-42
2022/01/30 15:32:14;;;;;;;28.80;2.63;;;;;;;;;;5011640;28;20085;-41
2022/01/30 15:34:40;;;;;;;32.63;2.63;;;;;;;;;;5011945;28;20084;-42
2022/01/30 15:37:06;;;;;;;29.02;2.95;;;;;;;;;;5012254;28;20038;-42
2022/01/30 15:39:32;;;;;;;20.20;2.60;;;;;;;;;;5011837;28;20029;-42
2022/01/30 15:41:58;;;;;;;16.00;1.52;;;;;;;;;;4999309;28;20034;-43